Stolt Effort — ZCSP6 — position and weather

sailwx.info

Track history (hours):
 
Tides and Currents Weather Stations Pressure Air Temp Water Temp Dewpoint Dewpoint Depression Visibility Wind Speed Wind Dir Waves Ship Positions

Stolt Effort

Last reported at 2014-Dec-22 05:24 UTC. Time now 2014-Dec-23 05:09 UTC.
Position N 29°59' E 121°45'.

Length 176 m; draft 11.2 m.

Type: Ship (hazmat cat B). MMSI: 319445000.

Date/timePositionNaut miles runAvg speedWind from/ knotsBaromVisibWave heightAir tempDewpointWater temp
2014-Dec-22 05:24N 29°59' E 121°45'3 4.0
2014-Dec-22 04:33N 29°59' E 121°49'8 8.5
2014-Dec-22 03:33N 29°58' E 121°59'1313.2
2014-Dec-22 02:33N 29°51' E 122°12'9 9.2
2014-Dec-22 01:33N 29°46' E 122°20'2 1.4
2014-Dec-22 00:28N 29°47' E 122°22'0 0.1
2014-Dec-21 23:10N 29°47' E 122°22'0 0.1
2014-Dec-21 22:04N 29°46' E 122°22'0 0.1
2014-Dec-21 20:28N 29°46' E 122°22'0 0.1
2014-Dec-21 19:22N 29°46' E 122°22'0 0.0
2014-Dec-21 17:16N 29°46' E 122°22'0 0.0
2014-Dec-21 15:28N 29°46' E 122°22'0 0.1
2014-Dec-21 13:10N 29°47' E 122°22'0 0.0
2014-Dec-21 08:10N 29°46' E 122°22'0 0.1
2014-Dec-21 06:29N 29°46' E 122°22'6 5.1
2014-Dec-21 05:21N 29°47' E 122°16'911.5
2014-Dec-21 04:33N 29°55' E 122°10'10 9.6
2014-Dec-21 03:34N 29°58' E 121°59'9 8.9
2014-Dec-21 02:34N 29°55' E 122°09'1312.3
2014-Dec-21 01:33N 29°46' E 122°18'6 6.1
2014-Dec-21 00:33N 29°47' E 122°25'0 0.0
2014-Dec-20 23:22N 29°48' E 122°25'0 0.0
2014-Dec-20 07:04N 29°47' E 122°25'0 0.0
2014-Dec-19 23:16N 29°48' E 122°25'0 0.1
2014-Dec-19 22:28N 29°47' E 122°25'0 0.1
2014-Dec-19 17:28N 29°47' E 122°25'0 0.0
2014-Dec-19 16:28N 29°47' E 122°25'0 0.0
2014-Dec-19 15:28N 29°47' E 122°25'0 0.1
2014-Dec-19 11:22N 29°48' E 122°25'0 0.1
2014-Dec-19 07:28N 29°47' E 122°25'0 0.1
2014-Dec-19 05:22N 29°47' E 122°25'0 0.1
2014-Dec-19 00:16N 29°48' E 122°25'0 0.0
2014-Dec-18 22:16N 29°47' E 122°25'0 0.0
2014-Dec-18 20:28N 29°47' E 122°25'0 0.1
2014-Dec-18 19:28N 29°47' E 122°25'1 0.1
2014-Dec-18 12:33N 29°47' E 122°25'4 3.7
2014-Dec-18 11:32N 29°45' E 122°29'  
Track history (hours):
 
Tides and Currents Weather Stations Pressure Air Temp Water Temp Dewpoint Dewpoint Depression Visibility Wind Speed Wind Dir Waves Ship Positions

Stolt Effort

Last reported at 2014-Dec-22 05:24 UTC. Time now 2014-Dec-23 05:09 UTC.
Position N 29°59' E 121°45'.

Length 176 m; draft 11.2 m.

Type: Ship (hazmat cat B). MMSI: 319445000.

Date/timePositionNaut miles runAvg speedWind from/ knotsBaromVisibWave heightAir tempDewpointWater temp
2014-Dec-22 05:24N 29°59' E 121°45'3 4.0
2014-Dec-22 04:33N 29°59' E 121°49'8 8.5
2014-Dec-22 03:33N 29°58' E 121°59'1313.2
2014-Dec-22 02:33N 29°51' E 122°12'9 9.2
2014-Dec-22 01:33N 29°46' E 122°20'2 1.4
2014-Dec-22 00:28N 29°47' E 122°22'0 0.1
2014-Dec-21 23:10N 29°47' E 122°22'0 0.1
2014-Dec-21 22:04N 29°46' E 122°22'0 0.1
2014-Dec-21 20:28N 29°46' E 122°22'0 0.1
2014-Dec-21 19:22N 29°46' E 122°22'0 0.0
2014-Dec-21 17:16N 29°46' E 122°22'0 0.0
2014-Dec-21 15:28N 29°46' E 122°22'0 0.1
2014-Dec-21 13:10N 29°47' E 122°22'0 0.0
2014-Dec-21 08:10N 29°46' E 122°22'0 0.1
2014-Dec-21 06:29N 29°46' E 122°22'6 5.1
2014-Dec-21 05:21N 29°47' E 122°16'911.5
2014-Dec-21 04:33N 29°55' E 122°10'10 9.6
2014-Dec-21 03:34N 29°58' E 121°59'9 8.9
2014-Dec-21 02:34N 29°55' E 122°09'1312.3
2014-Dec-21 01:33N 29°46' E 122°18'6 6.1
2014-Dec-21 00:33N 29°47' E 122°25'0 0.0
2014-Dec-20 23:22N 29°48' E 122°25'0 0.0
2014-Dec-20 07:04N 29°47' E 122°25'0 0.0
2014-Dec-19 23:16N 29°48' E 122°25'0 0.1
2014-Dec-19 22:28N 29°47' E 122°25'0 0.1
2014-Dec-19 17:28N 29°47' E 122°25'0 0.0
2014-Dec-19 16:28N 29°47' E 122°25'0 0.0
2014-Dec-19 15:28N 29°47' E 122°25'0 0.1
2014-Dec-19 11:22N 29°48' E 122°25'0 0.1
2014-Dec-19 07:28N 29°47' E 122°25'0 0.1
2014-Dec-19 05:22N 29°47' E 122°25'0 0.1
2014-Dec-19 00:16N 29°48' E 122°25'0 0.0
2014-Dec-18 22:16N 29°47' E 122°25'0 0.0
2014-Dec-18 20:28N 29°47' E 122°25'0 0.1
2014-Dec-18 19:28N 29°47' E 122°25'1 0.1
2014-Dec-18 12:33N 29°47' E 122°25'4 3.7
2014-Dec-18 11:32N 29°45' E 122°29'  

Dump ship's entire track history